createdAt,value
2022-08-28T00:00:37.118Z,20.86
2022-08-28T00:03:05.767Z,20.87
2022-08-28T00:05:33.897Z,20.96
2022-08-28T00:08:00.536Z,20.92
2022-08-28T00:10:28.528Z,20.97
2022-08-28T00:12:56.396Z,20.77
2022-08-28T00:15:29.229Z,20.74
2022-08-28T00:18:16.484Z,20.86
2022-08-28T00:21:04.038Z,20.91
2022-08-28T00:23:50.896Z,20.93
2022-08-28T00:26:56.265Z,20.67
2022-08-28T00:29:43.761Z,20.74
2022-08-28T00:32:30.651Z,20.62
2022-08-28T00:34:57.784Z,20.51
2022-08-28T00:37:24.776Z,20.58
2022-08-28T00:39:51.565Z,20.64
2022-08-28T00:42:18.654Z,20.65
2022-08-28T00:44:45.339Z,20.68
2022-08-28T00:47:12.533Z,20.73
2022-08-28T00:49:47.962Z,20.60
2022-08-28T00:52:16.027Z,20.68
2022-08-28T00:54:59.646Z,20.60
2022-08-28T00:57:38.936Z,20.70
2022-08-28T01:00:09.097Z,20.65
2022-08-28T01:02:35.789Z,20.50
2022-08-28T01:05:03.969Z,20.67
2022-08-28T01:07:30.499Z,20.66
2022-08-28T01:09:57.449Z,20.54
2022-08-28T01:12:29.796Z,20.54
2022-08-28T01:15:00.526Z,20.56
2022-08-28T01:17:29.628Z,20.67
2022-08-28T01:20:01.072Z,20.64
2022-08-28T01:22:40.384Z,20.67
2022-08-28T01:25:14.727Z,20.63
2022-08-28T01:27:41.919Z,20.42
2022-08-28T01:30:12.081Z,20.51
2022-08-28T01:32:41.560Z,20.48
2022-08-28T01:35:11.896Z,20.55
2022-08-28T01:37:38.831Z,20.33
2022-08-28T01:40:07.654Z,20.42
2022-08-28T01:42:43.012Z,20.38
2022-08-28T01:45:13.570Z,20.40
2022-08-28T01:47:42.433Z,20.29
2022-08-28T01:50:12.211Z,20.45
2022-08-28T01:52:39.480Z,20.38
2022-08-28T01:55:06.956Z,20.34
2022-08-28T01:57:33.580Z,20.28
2022-08-28T02:00:00.160Z,20.20
2022-08-28T02:02:26.724Z,20.26
2022-08-28T02:04:54.138Z,20.30
2022-08-28T02:07:20.841Z,20.20
2022-08-28T02:09:48.023Z,20.27
2022-08-28T02:12:14.520Z,20.33
2022-08-28T02:14:41.453Z,20.34
2022-08-28T02:17:08.346Z,20.41
2022-08-28T02:19:34.850Z,20.34
2022-08-28T02:22:01.692Z,20.27
2022-08-28T02:24:28.273Z,20.33
2022-08-28T02:26:55.106Z,20.25
2022-08-28T02:29:21.915Z,20.27
2022-08-28T02:31:48.573Z,20.22
2022-08-28T02:34:15.752Z,20.23
2022-08-28T02:36:42.556Z,20.22
2022-08-28T02:39:09.717Z,20.07
2022-08-28T02:41:36.882Z,20.10
2022-08-28T02:44:05.013Z,20.16
2022-08-28T02:46:31.699Z,20.11
2022-08-28T02:48:58.230Z,20.20
2022-08-28T02:51:25.761Z,20.22
2022-08-28T02:53:52.635Z,20.19
2022-08-28T02:56:19.672Z,20.19
2022-08-28T02:58:46.433Z,20.16
2022-08-28T03:01:13.376Z,20.18
2022-08-28T03:03:41.298Z,20.19
2022-08-28T03:06:10.362Z,20.13
2022-08-28T03:08:37.430Z,20.13
2022-08-28T03:11:04.188Z,20.12
2022-08-28T03:13:31.680Z,20.05
2022-08-28T03:15:58.784Z,20.10
2022-08-28T03:18:27.076Z,20.05
2022-08-28T03:20:54.124Z,20.11
2022-08-28T03:23:26.534Z,20.03
2022-08-28T03:25:55.783Z,19.99
2022-08-28T03:28:22.676Z,20.07
2022-08-28T03:30:50.574Z,20.00
2022-08-28T03:33:17.614Z,20.00
2022-08-28T03:35:44.663Z,19.97
2022-08-28T03:38:11.564Z,19.92
2022-08-28T03:40:40.544Z,20.03
2022-08-28T03:43:07.142Z,20.03
2022-08-28T03:45:34.107Z,19.90
2022-08-28T03:48:01.772Z,19.92
2022-08-28T03:50:28.507Z,19.88
2022-08-28T03:52:56.403Z,19.98
2022-08-28T03:55:22.946Z,19.92
2022-08-28T03:57:50.814Z,19.90
2022-08-28T04:00:19.064Z,19.79
2022-08-28T04:02:46.144Z,19.88
2022-08-28T04:05:14.228Z,19.90
2022-08-28T04:07:40.765Z,19.86
2022-08-28T04:10:08.319Z,19.70
2022-08-28T04:12:35.932Z,19.78
2022-08-28T04:15:07.071Z,19.82
2022-08-28T04:17:34.292Z,19.74
2022-08-28T04:20:01.166Z,19.81
2022-08-28T04:22:29.649Z,19.80
2022-08-28T04:24:56.342Z,19.85
2022-08-28T04:27:22.794Z,19.86
2022-08-28T04:29:49.850Z,19.85
2022-08-28T04:32:16.753Z,19.82
2022-08-28T04:34:43.418Z,19.74
2022-08-28T04:37:10.844Z,19.64
2022-08-28T04:39:37.601Z,19.64
2022-08-28T04:42:04.775Z,19.64
2022-08-28T04:44:32.147Z,19.62
2022-08-28T04:46:58.950Z,19.71
2022-08-28T04:49:26.069Z,19.71
2022-08-28T04:51:52.729Z,19.67
2022-08-28T04:54:20.460Z,19.49
2022-08-28T04:56:47.057Z,19.56
2022-08-28T04:59:13.996Z,19.56
2022-08-28T05:01:42.818Z,19.54
2022-08-28T05:04:11.811Z,19.59
2022-08-28T05:06:46.451Z,19.51
2022-08-28T05:09:20.520Z,19.31
2022-08-28T05:11:49.433Z,19.32
2022-08-28T05:14:16.515Z,19.43
2022-08-28T05:16:49.753Z,19.47
2022-08-28T05:19:18.508Z,19.36
2022-08-28T05:21:45.738Z,19.28
2022-08-28T05:24:14.055Z,19.31
2022-08-28T05:26:41.018Z,19.26
2022-08-28T05:29:10.152Z,19.34
2022-08-28T05:31:38.993Z,19.32
2022-08-28T05:34:08.482Z,19.34
2022-08-28T05:36:37.441Z,19.40
2022-08-28T05:39:07.057Z,19.49
2022-08-28T05:41:34.494Z,19.46
2022-08-28T05:44:06.618Z,19.45
2022-08-28T05:46:35.857Z,19.48
2022-08-28T05:49:04.780Z,19.43
2022-08-28T05:51:35.408Z,19.30
2022-08-28T05:54:03.617Z,19.34
2022-08-28T05:56:34.857Z,19.41
2022-08-28T05:59:03.188Z,19.39
2022-08-28T06:01:32.640Z,19.38
2022-08-28T06:04:03.109Z,19.51
2022-08-28T06:06:30.517Z,19.57
2022-08-28T06:08:59.459Z,19.44
2022-08-28T06:11:30.419Z,19.41
2022-08-28T06:14:01.726Z,19.39
2022-08-28T06:16:32.774Z,19.55
2022-08-28T06:19:00.334Z,19.63
2022-08-28T06:21:29.441Z,19.80
2022-08-28T06:23:56.431Z,19.88
2022-08-28T06:26:23.717Z,19.86
2022-08-28T06:28:51.169Z,19.72
2022-08-28T06:31:24.260Z,19.77
2022-08-28T06:33:56.255Z,19.91
2022-08-28T06:36:25.211Z,19.92
2022-08-28T06:38:52.000Z,19.75
2022-08-28T06:41:19.555Z,19.91
2022-08-28T06:43:46.391Z,20.01
2022-08-28T06:46:13.056Z,20.10
2022-08-28T06:48:40.045Z,20.19
2022-08-28T06:51:09.455Z,20.22
2022-08-28T06:53:38.195Z,20.09
2022-08-28T06:56:11.136Z,20.31
2022-08-28T06:58:43.304Z,20.55
2022-08-28T07:01:24.482Z,20.49
2022-08-28T07:03:53.705Z,20.52
2022-08-28T07:06:22.650Z,20.44
2022-08-28T07:08:50.940Z,20.37
2022-08-28T07:11:25.999Z,20.51
2022-08-28T07:13:54.313Z,20.51
2022-08-28T07:16:24.138Z,20.76
2022-08-28T07:18:51.270Z,20.73
2022-08-28T07:21:17.797Z,20.60
2022-08-28T07:23:46.001Z,20.71
2022-08-28T07:26:17.548Z,20.75
2022-08-28T07:28:45.382Z,20.85
2022-08-28T07:31:16.084Z,20.88
2022-08-28T07:33:43.508Z,20.93
2022-08-28T07:36:16.025Z,20.82
2022-08-28T07:38:58.871Z,21.10
2022-08-28T07:41:31.630Z,21.41
2022-08-28T07:44:34.547Z,21.67
2022-08-28T07:47:06.231Z,21.76
2022-08-28T07:49:35.797Z,21.64
2022-08-28T07:52:02.947Z,22.05
2022-08-28T07:54:29.474Z,22.46
2022-08-28T07:56:56.341Z,22.77
2022-08-28T07:59:22.851Z,22.85
2022-08-28T08:01:52.114Z,23.02
2022-08-28T08:04:20.701Z,23.17
2022-08-28T08:06:47.273Z,22.59
2022-08-28T08:09:16.471Z,22.57
2022-08-28T08:11:44.158Z,22.88
2022-08-28T08:14:12.275Z,22.78
2022-08-28T08:16:42.227Z,22.82
2022-08-28T08:19:14.084Z,22.75
2022-08-28T08:21:46.644Z,22.65
2022-08-28T08:24:20.756Z,22.53
2022-08-28T08:26:58.980Z,22.74
2022-08-28T08:29:35.902Z,23.12
2022-08-28T08:32:07.745Z,23.33
2022-08-28T08:34:38.785Z,23.39
2022-08-28T08:37:06.330Z,23.81
2022-08-28T08:39:36.881Z,23.74
2022-08-28T08:42:07.389Z,23.95
2022-08-28T08:44:40.643Z,23.99
2022-08-28T08:47:43.498Z,23.93
2022-08-28T08:50:22.561Z,23.88
2022-08-28T08:53:12.516Z,23.61
2022-08-28T08:55:46.672Z,24.39
2022-08-28T08:58:35.026Z,24.89
2022-08-28T09:01:14.613Z,24.96
2022-08-28T09:03:55.882Z,25.21
2022-08-28T09:06:44.524Z,25.03
2022-08-28T09:09:18.411Z,24.69
2022-08-28T09:11:58.334Z,25.11
2022-08-28T09:14:37.455Z,25.30
2022-08-28T09:17:07.025Z,25.57
2022-08-28T09:19:33.773Z,24.99
2022-08-28T09:22:02.241Z,25.00
2022-08-28T09:24:38.016Z,24.81
2022-08-28T09:27:25.407Z,24.77
2022-08-28T09:29:59.128Z,24.71
2022-08-28T09:32:35.443Z,25.39
2022-08-28T09:35:25.340Z,25.93
2022-08-28T09:37:52.118Z,26.43
2022-08-28T09:40:49.585Z,26.12
2022-08-28T09:43:27.483Z,25.95
2022-08-28T09:46:17.399Z,25.83
2022-08-28T09:48:45.409Z,25.86
2022-08-28T09:51:21.209Z,26.49
2022-08-28T09:53:50.676Z,26.50
2022-08-28T09:56:36.746Z,26.80
2022-08-28T09:59:07.859Z,27.00
2022-08-28T10:01:51.734Z,27.22
2022-08-28T10:04:33.024Z,27.47
2022-08-28T10:07:18.968Z,27.51
2022-08-28T10:10:20.197Z,26.93
2022-08-28T10:13:10.099Z,27.42
2022-08-28T10:15:55.771Z,27.78
2022-08-28T10:18:31.787Z,28.10
2022-08-28T10:21:09.552Z,28.33
2022-08-28T10:24:13.781Z,28.66
2022-08-28T10:26:47.241Z,28.84
2022-08-28T10:29:35.041Z,29.01
2022-08-28T10:32:34.744Z,28.83
2022-08-28T10:35:13.633Z,27.48
2022-08-28T10:37:55.565Z,28.01
2022-08-28T10:40:32.690Z,28.05
2022-08-28T10:43:08.692Z,28.07
2022-08-28T10:45:35.879Z,29.54
2022-08-28T10:48:17.513Z,28.85
2022-08-28T10:50:52.592Z,28.18
2022-08-28T10:53:50.714Z,28.83
2022-08-28T10:56:40.589Z,29.37
2022-08-28T10:59:07.082Z,28.87
2022-08-28T11:01:38.484Z,30.04
2022-08-28T11:04:24.694Z,29.31
2022-08-28T11:07:15.378Z,29.81
2022-08-28T11:09:46.051Z,29.70
2022-08-28T11:12:20.015Z,29.40
2022-08-28T11:14:51.032Z,29.84
2022-08-28T11:17:27.667Z,30.41
2022-08-28T11:20:07.084Z,31.07
2022-08-28T11:22:39.796Z,30.48
2022-08-28T11:25:13.689Z,29.84
2022-08-28T11:28:00.463Z,29.00
2022-08-28T11:30:33.024Z,29.55
2022-08-28T11:33:02.635Z,30.30
2022-08-28T11:35:29.362Z,29.36
2022-08-28T11:37:58.003Z,28.93
2022-08-28T11:40:32.077Z,29.78
2022-08-28T11:43:14.579Z,30.23
2022-08-28T11:45:45.704Z,29.03
2022-08-28T11:48:22.771Z,29.99
2022-08-28T11:50:57.220Z,29.24
2022-08-28T11:53:26.707Z,30.44
2022-08-28T11:56:31.387Z,30.75
2022-08-28T11:59:24.731Z,29.94
2022-08-28T12:01:52.104Z,30.11
2022-08-28T12:04:22.162Z,30.50
2022-08-28T12:07:12.007Z,31.03
2022-08-28T12:09:45.267Z,31.70
2022-08-28T12:12:22.244Z,31.30
2022-08-28T12:14:54.942Z,31.18
2022-08-28T12:17:21.830Z,31.45
2022-08-28T12:19:52.465Z,29.97
2022-08-28T12:22:26.480Z,30.24
2022-08-28T12:25:03.199Z,30.25
2022-08-28T12:27:31.727Z,29.96
2022-08-28T12:30:00.742Z,30.60
2022-08-28T12:32:46.304Z,30.90
2022-08-28T12:35:30.167Z,31.54
2022-08-28T12:37:57.594Z,30.73
2022-08-28T12:40:28.818Z,30.21
2022-08-28T12:43:05.339Z,30.39
2022-08-28T12:45:39.639Z,30.13
2022-08-28T12:48:29.251Z,30.81
2022-08-28T12:51:09.055Z,32.59
2022-08-28T12:53:43.501Z,32.84
2022-08-28T12:56:11.901Z,33.01
2022-08-28T12:58:40.440Z,32.81
2022-08-28T13:01:10.115Z,34.18
2022-08-28T13:03:53.302Z,35.02
2022-08-28T13:06:32.639Z,32.46
2022-08-28T13:09:14.287Z,32.22
2022-08-28T13:11:50.753Z,33.59
2022-08-28T13:14:41.816Z,34.20
2022-08-28T13:17:09.373Z,33.21
2022-08-28T13:19:37.771Z,32.31
2022-08-28T13:22:29.192Z,31.90
2022-08-28T13:25:01.607Z,32.88
2022-08-28T13:27:29.158Z,32.85
2022-08-28T13:30:08.257Z,32.44
2022-08-28T13:32:39.237Z,32.34
2022-08-28T13:35:16.574Z,31.09
2022-08-28T13:37:50.260Z,33.16
2022-08-28T13:40:53.223Z,32.72
2022-08-28T13:43:10.187Z,34.09
2022-08-28T13:45:44.198Z,33.71
2022-08-28T13:48:37.463Z,34.76
2022-08-28T13:51:11.243Z,34.05
2022-08-28T13:53:39.793Z,34.59
2022-08-28T13:56:06.691Z,34.45
2022-08-28T13:58:33.272Z,33.53
2022-08-28T14:01:00.942Z,33.90
2022-08-28T14:03:37.969Z,34.42
2022-08-28T14:06:14.075Z,34.46
2022-08-28T14:08:43.205Z,34.21
2022-08-28T14:11:12.656Z,33.51
2022-08-28T14:13:40.247Z,33.00
2022-08-28T14:16:07.823Z,33.81
2022-08-28T14:18:35.229Z,35.05
2022-08-28T14:21:05.145Z,35.59
2022-08-28T14:23:33.703Z,35.49
2022-08-28T14:26:00.197Z,35.52
2022-08-28T14:28:26.939Z,35.84
2022-08-28T14:30:53.447Z,35.28
2022-08-28T14:33:20.723Z,34.60
2022-08-28T14:35:48.757Z,34.01
2022-08-28T14:38:16.310Z,33.89
2022-08-28T14:40:44.055Z,33.82
2022-08-28T14:43:12.406Z,34.94
2022-08-28T14:45:43.342Z,35.00
2022-08-28T14:48:10.368Z,35.52
2022-08-28T14:50:42.423Z,35.91
2022-08-28T14:53:09.672Z,34.66
2022-08-28T14:55:54.279Z,35.25
2022-08-28T14:58:21.068Z,36.36
2022-08-28T15:00:50.049Z,35.85
2022-08-28T15:03:18.536Z,34.76
2022-08-28T15:05:46.058Z,36.72
2022-08-28T15:08:16.595Z,36.59
2022-08-28T15:10:44.031Z,35.54
2022-08-28T15:13:11.345Z,35.72
2022-08-28T15:15:41.183Z,35.47
2022-08-28T15:18:10.145Z,35.27
2022-08-28T15:20:42.174Z,34.55
2022-08-28T15:23:10.274Z,34.65
2022-08-28T15:25:37.248Z,35.86
2022-08-28T15:28:04.794Z,35.84
2022-08-28T15:30:31.962Z,34.90
2022-08-28T15:33:01.206Z,34.37
2022-08-28T15:35:28.271Z,34.59
2022-08-28T15:37:54.777Z,35.61
2022-08-28T15:40:40.043Z,34.91
2022-08-28T15:43:06.775Z,35.20
2022-08-28T15:45:37.469Z,35.14
2022-08-28T15:48:04.276Z,34.95
2022-08-28T15:50:30.934Z,35.10
2022-08-28T15:52:57.717Z,35.02
2022-08-28T15:55:27.241Z,34.85
2022-08-28T15:57:55.021Z,35.01
2022-08-28T16:00:22.488Z,35.31
2022-08-28T16:02:49.103Z,36.09
2022-08-28T16:05:16.211Z,35.96
2022-08-28T16:07:42.945Z,35.08
2022-08-28T16:10:13.316Z,35.66
2022-08-28T16:12:40.819Z,35.27
2022-08-28T16:15:08.797Z,34.84
2022-08-28T16:17:36.601Z,35.52
2022-08-28T16:20:06.570Z,35.77
2022-08-28T16:22:39.367Z,35.17
2022-08-28T16:25:06.686Z,34.61
2022-08-28T16:27:33.671Z,35.70
2022-08-28T16:30:00.892Z,36.03
2022-08-28T16:32:27.714Z,35.71
2022-08-28T16:34:54.490Z,35.79
2022-08-28T16:37:21.532Z,35.46
2022-08-28T16:39:53.772Z,35.41
2022-08-28T16:42:20.683Z,35.57
2022-08-28T16:44:47.250Z,35.53
2022-08-28T16:47:14.480Z,33.72
2022-08-28T16:49:40.951Z,33.91
2022-08-28T16:52:07.605Z,34.01
2022-08-28T16:54:34.301Z,33.35
2022-08-28T16:57:01.935Z,34.11
2022-08-28T16:59:28.767Z,34.58
2022-08-28T17:01:55.798Z,34.23
2022-08-28T17:04:22.654Z,34.03
2022-08-28T17:06:49.380Z,34.13
2022-08-28T17:09:15.836Z,33.32
2022-08-28T17:11:42.352Z,32.88
2022-08-28T17:14:10.978Z,32.36
2022-08-28T17:16:38.441Z,31.62
2022-08-28T17:19:04.980Z,31.12
2022-08-28T17:21:50.881Z,30.82
2022-08-28T17:24:17.840Z,30.42
2022-08-28T17:26:44.819Z,29.94
2022-08-28T17:29:11.772Z,28.86
2022-08-28T17:31:38.732Z,29.46
2022-08-28T17:34:07.282Z,29.54
2022-08-28T17:36:36.929Z,29.44
2022-08-28T17:39:08.868Z,29.23
2022-08-28T17:41:35.867Z,29.06
2022-08-28T17:44:03.236Z,29.04
2022-08-28T17:46:33.991Z,29.14
2022-08-28T17:49:05.215Z,28.87
2022-08-28T17:51:42.753Z,28.55
2022-08-28T17:54:21.364Z,28.79
2022-08-28T17:56:48.452Z,28.53
2022-08-28T17:59:16.024Z,28.23
2022-08-28T18:01:45.087Z,27.67
2022-08-28T18:04:12.967Z,27.93
2022-08-28T18:06:40.159Z,28.08
2022-08-28T18:09:09.880Z,27.85
2022-08-28T18:11:37.386Z,27.09
2022-08-28T18:14:04.853Z,27.49
2022-08-28T18:16:33.383Z,27.69
2022-08-28T18:19:01.528Z,27.68
2022-08-28T18:21:29.139Z,27.25
2022-08-28T18:23:56.011Z,27.26
2022-08-28T18:26:23.457Z,27.30
2022-08-28T18:28:50.825Z,27.30
2022-08-28T18:31:18.412Z,27.11
2022-08-28T18:33:45.149Z,27.05
2022-08-28T18:36:13.828Z,26.95
2022-08-28T18:38:40.922Z,26.80
2022-08-28T18:41:09.401Z,26.63
2022-08-28T18:43:36.794Z,26.73
2022-08-28T18:46:05.322Z,26.65
2022-08-28T18:48:32.945Z,26.31
2022-08-28T18:50:59.682Z,26.43
2022-08-28T18:53:26.527Z,26.17
2022-08-28T18:55:54.951Z,25.82
2022-08-28T18:58:23.647Z,25.56
2022-08-28T19:00:51.020Z,25.46
2022-08-28T19:03:17.487Z,25.61
2022-08-28T19:05:44.333Z,25.31
2022-08-28T19:08:11.352Z,25.40
2022-08-28T19:10:38.588Z,25.47
2022-08-28T19:13:06.642Z,25.39
2022-08-28T19:15:35.809Z,25.34
2022-08-28T19:18:04.093Z,25.30
2022-08-28T19:20:31.840Z,25.25
2022-08-28T19:22:59.344Z,24.98
2022-08-28T19:25:29.201Z,24.82
2022-08-28T19:28:01.303Z,24.77
2022-08-28T19:30:31.295Z,24.58
2022-08-28T19:32:57.830Z,24.56
2022-08-28T19:35:25.230Z,24.32
2022-08-28T19:37:55.615Z,24.18
2022-08-28T19:40:23.153Z,24.18
2022-08-28T19:42:49.921Z,24.15
2022-08-28T19:45:17.875Z,23.99
2022-08-28T19:47:44.979Z,24.05
2022-08-28T19:50:13.819Z,23.78
2022-08-28T19:52:41.333Z,23.78
2022-08-28T19:55:08.373Z,23.66
2022-08-28T19:57:35.027Z,23.54
2022-08-28T20:00:02.438Z,23.47
2022-08-28T20:02:30.868Z,23.50
2022-08-28T20:04:57.429Z,23.43
2022-08-28T20:07:24.846Z,23.27
2022-08-28T20:09:52.332Z,23.19
2022-08-28T20:12:19.792Z,23.03
2022-08-28T20:14:46.688Z,22.95
2022-08-28T20:17:13.847Z,23.01
2022-08-28T20:19:40.446Z,22.81
2022-08-28T20:22:06.969Z,22.70
2022-08-28T20:24:37.292Z,22.63
2022-08-28T20:27:04.230Z,22.30
2022-08-28T20:29:31.258Z,21.92
2022-08-28T20:31:58.002Z,22.20
2022-08-28T20:34:24.578Z,22.29
2022-08-28T20:36:51.972Z,21.96
2022-08-28T20:39:20.342Z,21.60
2022-08-28T20:41:47.929Z,21.60
2022-08-28T20:44:16.102Z,21.47
2022-08-28T20:46:43.569Z,21.67
2022-08-28T20:49:11.535Z,21.45
2022-08-28T20:51:53.932Z,21.02
2022-08-28T20:54:27.023Z,21.06
2022-08-28T20:56:54.356Z,21.00
2022-08-28T20:59:21.706Z,21.02
2022-08-28T21:01:51.746Z,20.80
2022-08-28T21:04:19.022Z,20.75
2022-08-28T21:06:49.015Z,20.51
2022-08-28T21:09:17.639Z,20.59
2022-08-28T21:11:44.719Z,20.35
2022-08-28T21:14:11.713Z,20.28
2022-08-28T21:16:40.062Z,20.29
2022-08-28T21:19:15.733Z,20.18
2022-08-28T21:21:44.179Z,20.14
2022-08-28T21:24:13.468Z,20.16
2022-08-28T21:26:43.252Z,20.29
2022-08-28T21:29:11.354Z,20.18
2022-08-28T21:31:41.146Z,20.09
2022-08-28T21:34:09.344Z,20.07
2022-08-28T21:36:38.706Z,19.96
2022-08-28T21:39:05.967Z,19.99
2022-08-28T21:41:33.165Z,19.91
2022-08-28T21:43:59.937Z,19.77
2022-08-28T21:46:27.745Z,19.66
2022-08-28T21:48:56.199Z,19.61
2022-08-28T21:51:25.118Z,19.64
2022-08-28T21:53:54.304Z,19.56
2022-08-28T21:56:23.890Z,19.52
2022-08-28T21:58:53.146Z,19.57
2022-08-28T22:01:21.250Z,19.59
2022-08-28T22:03:48.081Z,19.61
2022-08-28T22:06:18.371Z,19.62
2022-08-28T22:08:46.589Z,19.61
2022-08-28T22:11:15.708Z,19.60
2022-08-28T22:13:43.552Z,19.46
2022-08-28T22:16:10.659Z,19.46
2022-08-28T22:18:37.789Z,19.44
2022-08-28T22:21:23.692Z,19.32
2022-08-28T22:23:51.033Z,19.36
2022-08-28T22:26:20.814Z,19.47
2022-08-28T22:28:47.922Z,19.40
2022-08-28T22:31:14.653Z,19.46
2022-08-28T22:33:42.827Z,19.34
2022-08-28T22:36:11.002Z,19.39
2022-08-28T22:38:39.253Z,19.31
2022-08-28T22:41:07.331Z,19.32
2022-08-28T22:43:34.984Z,19.33
2022-08-28T22:46:01.866Z,19.34
2022-08-28T22:48:28.376Z,19.29
2022-08-28T22:51:04.624Z,19.20
2022-08-28T22:53:31.874Z,19.21
2022-08-28T22:56:00.418Z,19.17
2022-08-28T22:58:32.837Z,19.12
2022-08-28T23:01:02.268Z,19.03
2022-08-28T23:03:29.038Z,19.15
2022-08-28T23:05:56.198Z,19.14
2022-08-28T23:08:22.970Z,19.08
2022-08-28T23:10:59.596Z,19.12
2022-08-28T23:13:27.434Z,19.03
2022-08-28T23:15:54.327Z,19.04
2022-08-28T23:18:21.054Z,19.01
2022-08-28T23:20:47.741Z,19.07
2022-08-28T23:23:17.300Z,19.01
2022-08-28T23:25:44.537Z,19.02
2022-08-28T23:28:11.664Z,19.06
2022-08-28T23:30:38.954Z,19.04
2022-08-28T23:33:08.496Z,18.88
2022-08-28T23:35:36.290Z,18.81
2022-08-28T23:38:04.842Z,18.87
2022-08-28T23:40:33.744Z,18.88
2022-08-28T23:43:01.001Z,18.89
2022-08-28T23:45:27.633Z,18.76
2022-08-28T23:47:55.244Z,18.85
2022-08-28T23:50:23.092Z,18.81
2022-08-28T23:52:50.428Z,18.80
2022-08-28T23:55:19.537Z,18.68
2022-08-28T23:57:46.205Z,18.75
